Skip Navigation LinksHome page > Weather > Current weather Skip Navigation Links

Current Weather

Central Park, New York

For information only: do not use for flight planning or navigation.
Latest weather
Observation time Friday, May 25, 2018 7:51 AM EDT
Local time Friday, May 25, 2018 8:47 AM EDT
Flight conditions Visual Meteorological Conditions
Winds
Wind direction West-Southwest (240°)
Wind speed 3 mph
Visibility 10 mi.
Sky condition
Ceiling unlimited
Sky clear
Temperature 68°F
Dewpoint 52°F
Altimeter 30.07 in.Hg
Pressure change last 3 hours0.01 in.Hg
Pressure falling more quickly
Derived measurements
Relative humidity 57%
Density altitude 760 ft.
Sea-level pressure 30.04 in.Hg
Climate data
Temperature minimum, last 6 hours 65°F
Temperature maximum, last 6 hours 69°F
Remarks
Fully automated report.
System requires maintenance.
Automated weather observing station with precipitation discriminator.
METAR KNYC 251151Z AUTO 24003KT 10SM CLR 20/11 A3007 RMK AO2 SLP172 T02000111 10206 20183 58002 $

Settings

Location code

InnerDrive.Weather 4.0.6615.0 Release CLR 4.0.30319.42000
Copyright ©2018 Inner Drive Technology. All rights reserved. Portions Copyright ©1986-2018 David Braverman.

Find weather

Site navigation


Skip Navigation Links

Place info

Page info

PayPal - The safer, easier way to pay online!

Return home.

Copyright ©2018 Inner Drive Technology. Purveyors of fine, hand-crafted computer software. Page printed 2018-05-25T12:47:21 UTC.